createdAt,value
2019-05-20T00:01:43.238Z,70.80
2019-05-20T00:05:50.626Z,70.90
2019-05-20T00:09:58.506Z,71.00
2019-05-20T00:14:06.027Z,71.20
2019-05-20T00:18:12.865Z,71.30
2019-05-20T00:22:19.661Z,71.40
2019-05-20T00:26:26.457Z,71.50
2019-05-20T00:30:33.238Z,71.50
2019-05-20T00:34:40.885Z,71.70
2019-05-20T00:39:06.629Z,71.70
2019-05-20T00:43:14.783Z,71.80
2019-05-20T00:47:21.587Z,71.70
2019-05-20T00:51:28.906Z,72.50
2019-05-20T00:55:35.713Z,72.00
2019-05-20T00:59:42.689Z,72.20
2019-05-20T01:03:50.775Z,72.30
2019-05-20T01:07:58.974Z,72.20
2019-05-20T01:12:06.387Z,72.30
2019-05-20T01:16:13.342Z,72.40
2019-05-20T01:20:20.247Z,72.70
2019-05-20T01:24:27.350Z,72.70
2019-05-20T01:28:34.247Z,72.70
2019-05-20T01:32:41.699Z,72.70
2019-05-20T01:36:48.592Z,72.70
2019-05-20T01:40:55.314Z,72.70
2019-05-20T01:45:03.285Z,72.80
2019-05-20T01:49:12.031Z,72.90
2019-05-20T01:53:20.652Z,73.00
2019-05-20T01:57:29.447Z,73.10
2019-05-20T02:01:37.904Z,73.00
2019-05-20T02:05:46.252Z,73.10
2019-05-20T02:09:53.293Z,73.10
2019-05-20T02:14:07.499Z,73.30
2019-05-20T02:18:14.784Z,73.30
2019-05-20T02:22:21.966Z,73.10
2019-05-20T02:26:29.347Z,73.30
2019-05-20T02:30:36.962Z,73.30
2019-05-20T02:34:43.737Z,73.30
2019-05-20T02:38:50.647Z,73.40
2019-05-20T02:42:59.064Z,73.30
2019-05-20T02:47:06.006Z,74.10
2019-05-20T02:51:14.513Z,74.00
2019-05-20T02:55:21.410Z,74.80
2019-05-20T02:59:28.258Z,75.00
2019-05-20T03:03:35.137Z,85.50
2019-05-20T03:07:43.464Z,81.80
2019-05-20T03:11:50.345Z,91.50
2019-05-20T03:15:57.462Z,93.70
2019-05-20T03:20:05.819Z,94.20
2019-05-20T03:24:12.700Z,95.40
2019-05-20T03:28:21.112Z,95.20
2019-05-20T03:32:28.408Z,91.70
2019-05-20T03:36:35.153Z,90.70
2019-05-20T03:40:42.154Z,92.40
2019-05-20T03:44:52.398Z,88.40
2019-05-20T03:48:58.076Z,83.60
2019-05-20T03:53:06.656Z,91.20
2019-05-20T03:57:13.712Z,93.00
2019-05-20T04:01:20.515Z,93.70
2019-05-20T04:05:27.330Z,91.90
2019-05-20T04:09:34.105Z,93.90
2019-05-20T04:13:40.951Z,96.00
2019-05-20T04:17:47.816Z,97.30
2019-05-20T04:21:54.930Z,91.20
2019-05-20T04:26:01.774Z,97.40
2019-05-20T04:30:08.587Z,98.00
2019-05-20T04:34:15.320Z,96.80
2019-05-20T04:38:23.302Z,98.40
2019-05-20T04:42:30.119Z,98.20
2019-05-20T04:46:36.971Z,97.50
2019-05-20T04:50:48.890Z,98.20
2019-05-20T04:54:55.716Z,97.80
2019-05-20T04:59:04.186Z,96.00
2019-05-20T05:03:11.006Z,97.10
2019-05-20T05:07:20.033Z,98.00
2019-05-20T05:11:26.810Z,97.50
2019-05-20T05:15:35.736Z,95.90
2019-05-20T05:19:42.517Z,96.80
2019-05-20T05:23:58.790Z,89.30
2019-05-20T05:27:59.836Z,91.50
2019-05-20T05:32:08.142Z,92.40
2019-05-20T05:36:15.423Z,89.70
2019-05-20T05:40:25.270Z,91.60
2019-05-20T05:44:32.111Z,93.00
2019-05-20T05:48:38.809Z,95.40
2019-05-20T05:52:45.561Z,85.90
2019-05-20T05:56:52.293Z,94.80
2019-05-20T06:00:59.141Z,91.60
2019-05-20T06:05:05.927Z,87.30
2019-05-20T06:09:12.694Z,97.30
2019-05-20T06:13:19.457Z,95.00
2019-05-20T06:17:26.219Z,96.30
2019-05-20T06:21:34.761Z,90.90
2019-05-20T06:25:44.527Z,96.20
2019-05-20T06:29:51.127Z,97.80
2019-05-20T06:33:57.890Z,95.80
2019-05-20T06:38:06.642Z,96.50
2019-05-20T06:42:13.366Z,98.50
2019-05-20T06:46:20.113Z,97.30
2019-05-20T06:50:29.680Z,98.10
2019-05-20T06:54:37.263Z,98.40
2019-05-20T06:58:44.038Z,99.00
2019-05-20T07:02:52.235Z,99.30
2019-05-20T07:06:59.070Z,98.50
2019-05-20T07:11:05.838Z,98.80
2019-05-20T07:15:12.776Z,96.70
2019-05-20T07:19:19.580Z,94.10
2019-05-20T07:23:26.748Z,98.20
2019-05-20T07:27:33.430Z,96.50
2019-05-20T07:31:40.657Z,96.20
2019-05-20T07:35:47.406Z,98.20
2019-05-20T07:39:55.209Z,98.30
2019-05-20T07:44:02.058Z,97.80
2019-05-20T07:48:09.164Z,97.90
2019-05-20T07:52:16.441Z,97.60
2019-05-20T07:56:26.856Z,94.80
2019-05-20T08:00:33.114Z,97.60
2019-05-20T08:04:41.235Z,95.50
2019-05-20T08:08:48.076Z,96.90
2019-05-20T08:12:54.761Z,95.30
2019-05-20T08:17:01.476Z,90.50
2019-05-20T08:21:09.691Z,95.50
2019-05-20T08:25:16.561Z,95.70
2019-05-20T08:29:23.323Z,94.50
2019-05-20T08:33:30.197Z,93.40
2019-05-20T08:37:45.315Z,93.20
2019-05-20T08:41:45.339Z,91.70
2019-05-20T08:45:52.072Z,89.70
2019-05-20T08:49:58.834Z,91.90
2019-05-20T08:54:05.572Z,92.10
2019-05-20T08:58:13.875Z,91.70
2019-05-20T09:02:20.869Z,91.10
2019-05-20T09:06:27.832Z,90.90
2019-05-20T09:10:34.849Z,88.30
2019-05-20T09:14:41.703Z,87.70
2019-05-20T09:18:48.434Z,85.10
2019-05-20T09:22:55.432Z,84.60
2019-05-20T09:27:03.284Z,84.70
2019-05-20T09:31:10.284Z,84.40
2019-05-20T09:35:17.046Z,84.80
2019-05-20T09:39:24.046Z,81.90
2019-05-20T09:43:30.941Z,81.30
2019-05-20T09:47:37.828Z,80.20
2019-05-20T09:51:44.555Z,81.30
2019-05-20T09:55:51.307Z,80.20
2019-05-20T09:59:58.271Z,78.50
2019-05-20T10:04:05.065Z,78.00
2019-05-20T10:08:11.865Z,80.60
2019-05-20T10:12:18.695Z,78.20
2019-05-20T10:16:25.653Z,79.50
2019-05-20T10:20:32.352Z,80.30
2019-05-20T10:24:39.092Z,78.70
2019-05-20T10:28:47.316Z,77.40
2019-05-20T10:32:54.218Z,75.00
2019-05-20T10:37:02.021Z,75.70
2019-05-20T10:41:08.727Z,74.40
2019-05-20T10:45:15.527Z,73.00
2019-05-20T10:49:23.791Z,69.30
2019-05-20T10:53:33.644Z,67.00
2019-05-20T10:57:40.695Z,73.50
2019-05-20T11:01:47.489Z,76.00
2019-05-20T11:05:54.236Z,73.10
2019-05-20T11:10:01.469Z,74.00
2019-05-20T11:14:09.029Z,73.30
2019-05-20T11:18:16.082Z,74.60
2019-05-20T11:22:22.757Z,76.00
2019-05-20T11:26:29.489Z,77.70
2019-05-20T11:30:36.247Z,75.40
2019-05-20T11:34:43.106Z,77.30
2019-05-20T11:38:50.591Z,76.80
2019-05-20T11:42:57.302Z,73.80
2019-05-20T11:47:05.195Z,76.30
2019-05-20T11:51:12.016Z,76.10
2019-05-20T11:55:18.757Z,74.10
2019-05-20T11:59:25.493Z,72.80
2019-05-20T12:03:32.242Z,68.60
2019-05-20T12:07:39.088Z,65.70
2019-05-20T12:11:45.810Z,64.50
2019-05-20T12:15:52.626Z,66.90
2019-05-20T12:19:59.604Z,67.30
2019-05-20T12:24:06.337Z,65.90
2019-05-20T12:28:13.163Z,63.00
2019-05-20T12:32:20.190Z,70.70
2019-05-20T12:36:26.949Z,65.60
2019-05-20T12:40:33.772Z,63.00
2019-05-20T12:44:42.141Z,66.60
2019-05-20T12:48:49.114Z,66.10
2019-05-20T12:52:56.322Z,63.90
2019-05-20T12:57:03.275Z,65.50
2019-05-20T13:01:10.071Z,64.70
2019-05-20T13:05:16.794Z,63.80
2019-05-20T13:09:24.663Z,65.70
2019-05-20T13:13:33.770Z,60.70
2019-05-20T13:17:44.729Z,66.00
2019-05-20T13:21:49.412Z,71.70
2019-05-20T13:25:56.135Z,63.80
2019-05-20T13:30:03.243Z,66.70
2019-05-20T13:34:11.919Z,65.90
2019-05-20T13:38:18.748Z,62.70
2019-05-20T13:42:25.581Z,60.50
2019-05-20T13:46:32.384Z,63.20
2019-05-20T13:50:39.566Z,60.60
2019-05-20T13:54:46.477Z,61.00
2019-05-20T13:58:53.283Z,60.20
2019-05-20T14:03:00.605Z,61.50
2019-05-20T14:07:07.384Z,62.40
2019-05-20T14:11:15.871Z,63.70
2019-05-20T14:15:22.560Z,64.40
2019-05-20T14:19:30.299Z,62.70
2019-05-20T14:23:37.024Z,61.00
2019-05-20T14:27:43.805Z,63.80
2019-05-20T14:31:50.505Z,63.50
2019-05-20T14:35:58.735Z,57.90
2019-05-20T14:40:07.264Z,63.30
2019-05-20T14:44:14.303Z,60.10
2019-05-20T14:48:21.107Z,61.10
2019-05-20T14:52:28.369Z,59.00
2019-05-20T14:56:35.269Z,61.10
2019-05-20T15:00:42.064Z,62.60
2019-05-20T15:04:48.925Z,60.70
2019-05-20T15:08:55.924Z,65.70
2019-05-20T15:13:06.384Z,60.50
2019-05-20T15:17:13.348Z,60.00
2019-05-20T15:21:20.273Z,60.40
2019-05-20T15:25:27.895Z,60.60
2019-05-20T15:29:39.647Z,59.90
2019-05-20T15:33:46.489Z,59.80
2019-05-20T15:37:53.377Z,59.90
2019-05-20T15:42:00.367Z,59.90
2019-05-20T15:46:08.765Z,59.70
2019-05-20T15:50:16.122Z,60.00
2019-05-20T15:54:22.960Z,59.40
2019-05-20T15:58:30.237Z,60.30
2019-05-20T16:02:37.228Z,59.50
2019-05-20T16:06:45.902Z,56.30
2019-05-20T16:10:52.821Z,61.10
2019-05-20T16:15:04.599Z,59.60
2019-05-20T16:19:11.914Z,57.90
2019-05-20T16:23:18.914Z,58.20
2019-05-20T16:27:25.989Z,59.00
2019-05-20T16:31:33.271Z,59.90
2019-05-20T16:35:40.504Z,60.20
2019-05-20T16:39:47.287Z,59.30
2019-05-20T16:43:55.753Z,57.60
2019-05-20T16:48:02.911Z,61.30
2019-05-20T16:52:09.858Z,59.60
2019-05-20T16:56:17.043Z,59.40
2019-05-20T17:00:31.444Z,58.50
2019-05-20T17:04:33.370Z,60.30
2019-05-20T17:08:40.163Z,59.30
2019-05-20T17:12:47.984Z,55.50
2019-05-20T17:16:55.534Z,61.80
2019-05-20T17:21:03.404Z,57.20
2019-05-20T17:25:11.067Z,60.00
2019-05-20T17:29:18.145Z,61.60
2019-05-20T17:33:26.643Z,59.20
2019-05-20T17:37:34.233Z,60.10
2019-05-20T17:41:41.364Z,60.60
2019-05-20T17:45:48.868Z,59.60
2019-05-20T17:49:55.894Z,60.10
2019-05-20T17:54:02.986Z,61.30
2019-05-20T17:58:10.380Z,60.50
2019-05-20T18:02:18.400Z,60.30
2019-05-20T18:06:27.266Z,60.50
2019-05-20T18:10:34.655Z,59.60
2019-05-20T18:14:41.933Z,60.50
2019-05-20T18:18:51.649Z,61.10
2019-05-20T18:22:59.987Z,60.80
2019-05-20T18:27:07.734Z,60.60
2019-05-20T18:31:30.939Z,60.90
2019-05-20T18:35:23.504Z,61.10
2019-05-20T18:39:30.722Z,61.90
2019-05-20T18:43:38.029Z,61.40
2019-05-20T18:47:45.407Z,61.30
2019-05-20T18:51:54.188Z,61.30
2019-05-20T18:56:05.165Z,61.40
2019-05-20T19:00:14.983Z,61.40
2019-05-20T19:05:39.171Z,61.60
2019-05-20T19:09:05.758Z,62.10
2019-05-20T19:13:15.099Z,62.10
2019-05-20T19:17:24.148Z,62.30
2019-05-20T19:21:32.396Z,62.30
2019-05-20T19:25:43.851Z,62.50
2019-05-20T19:29:50.255Z,62.40
2019-05-20T19:34:05.168Z,62.50
2019-05-20T19:38:14.920Z,62.70
2019-05-20T19:42:26.637Z,62.60
2019-05-20T19:46:37.641Z,63.30
2019-05-20T19:50:48.628Z,63.70
2019-05-20T19:54:57.516Z,64.30
2019-05-20T19:59:08.275Z,64.60
2019-05-20T20:03:17.475Z,65.50
2019-05-20T20:07:28.782Z,66.10
2019-05-20T20:11:35.242Z,66.10
2019-05-20T20:15:46.092Z,66.90
2019-05-20T20:19:58.247Z,67.10
2019-05-20T20:24:09.351Z,67.20
2019-05-20T20:28:16.605Z,68.10
2019-05-20T20:32:37.956Z,67.70
2019-05-20T20:36:41.019Z,67.80
2019-05-20T20:40:50.193Z,68.00
2019-05-20T20:44:58.556Z,68.10
2019-05-20T20:49:08.022Z,68.30
2019-05-20T20:53:18.183Z,68.50
2019-05-20T20:57:29.150Z,68.50
2019-05-20T21:01:36.212Z,68.70
2019-05-20T21:05:45.788Z,68.30
2019-05-20T21:09:52.851Z,69.10
2019-05-20T21:14:03.258Z,69.20
2019-05-20T21:18:11.557Z,69.30
2019-05-20T21:22:20.140Z,69.50
2019-05-20T21:26:29.563Z,69.80
2019-05-20T21:30:39.488Z,69.90
2019-05-20T21:34:51.542Z,70.10
2019-05-20T21:38:58.525Z,70.20
2019-05-20T21:43:07.050Z,70.50
2019-05-20T21:47:14.425Z,70.60
2019-05-20T21:51:21.524Z,71.00
2019-05-20T21:55:28.810Z,71.00
2019-05-20T21:59:36.974Z,71.10
2019-05-20T22:03:46.613Z,71.20
2019-05-20T22:07:55.306Z,71.20
2019-05-20T22:12:05.274Z,71.30
2019-05-20T22:16:12.143Z,71.40
2019-05-20T22:20:20.307Z,71.60
2019-05-20T22:24:27.361Z,71.80
2019-05-20T22:28:35.180Z,71.90
2019-05-20T22:32:42.753Z,72.30
2019-05-20T22:36:50.967Z,77.00
2019-05-20T22:40:57.633Z,84.40
2019-05-20T22:45:06.161Z,86.80
2019-05-20T22:49:13.189Z,77.50
2019-05-20T22:53:21.474Z,76.20
2019-05-20T22:57:28.825Z,76.40
2019-05-20T23:01:36.154Z,75.50
2019-05-20T23:05:44.660Z,74.60
2019-05-20T23:09:52.700Z,73.90
2019-05-20T23:14:02.052Z,75.50
2019-05-20T23:18:11.236Z,80.50
2019-05-20T23:22:18.138Z,76.50
2019-05-20T23:26:28.282Z,74.60
2019-05-20T23:30:36.130Z,81.40
2019-05-20T23:34:46.514Z,81.60
2019-05-20T23:38:54.285Z,82.00
2019-05-20T23:43:02.593Z,76.90
2019-05-20T23:47:11.174Z,75.50
2019-05-20T23:51:18.549Z,75.00
2019-05-20T23:55:27.002Z,75.10
2019-05-20T23:59:34.302Z,75.20
